sensor_id;sensor_type;location;lat;lon;timestamp;P1;durP1;ratioP1;P2;durP2;ratioP2
17363;SDS011;8799;43.594;13.526;2023-05-19T00:01:09;3.73;;;2.00;;
17363;SDS011;8799;43.594;13.526;2023-05-19T00:03:39;2.10;;;1.67;;
17363;SDS011;8799;43.594;13.526;2023-05-19T00:06:16;4.77;;;2.10;;
17363;SDS011;8799;43.594;13.526;2023-05-19T00:08:49;4.97;;;2.20;;
17363;SDS011;8799;43.594;13.526;2023-05-19T00:11:20;4.90;;;1.80;;
17363;SDS011;8799;43.594;13.526;2023-05-19T00:13:48;3.63;;;1.70;;
17363;SDS011;8799;43.594;13.526;2023-05-19T00:16:18;2.80;;;1.80;;
17363;SDS011;8799;43.594;13.526;2023-05-19T00:18:47;4.23;;;1.70;;
17363;SDS011;8799;43.594;13.526;2023-05-19T00:21:15;6.07;;;2.00;;
17363;SDS011;8799;43.594;13.526;2023-05-19T00:23:43;5.17;;;2.10;;
17363;SDS011;8799;43.594;13.526;2023-05-19T00:26:11;4.00;;;1.70;;
17363;SDS011;8799;43.594;13.526;2023-05-19T00:28:40;2.83;;;1.87;;
17363;SDS011;8799;43.594;13.526;2023-05-19T00:31:08;6.23;;;2.13;;
17363;SDS011;8799;43.594;13.526;2023-05-19T00:33:38;3.40;;;1.80;;
17363;SDS011;8799;43.594;13.526;2023-05-19T00:36:06;2.57;;;1.73;;
17363;SDS011;8799;43.594;13.526;2023-05-19T00:38:36;3.30;;;1.83;;
17363;SDS011;8799;43.594;13.526;2023-05-19T00:41:05;4.40;;;1.63;;
17363;SDS011;8799;43.594;13.526;2023-05-19T00:43:33;3.40;;;1.90;;
17363;SDS011;8799;43.594;13.526;2023-05-19T00:46:03;6.07;;;2.20;;
17363;SDS011;8799;43.594;13.526;2023-05-19T00:48:31;2.70;;;1.67;;
17363;SDS011;8799;43.594;13.526;2023-05-19T00:50:59;3.90;;;1.70;;
17363;SDS011;8799;43.594;13.526;2023-05-19T00:53:30;2.17;;;1.50;;
17363;SDS011;8799;43.594;13.526;2023-05-19T00:55:59;4.53;;;1.80;;
17363;SDS011;8799;43.594;13.526;2023-05-19T00:58:28;4.70;;;1.90;;
17363;SDS011;8799;43.594;13.526;2023-05-19T01:00:56;2.90;;;1.70;;
17363;SDS011;8799;43.594;13.526;2023-05-19T01:03:30;4.30;;;1.70;;
17363;SDS011;8799;43.594;13.526;2023-05-19T01:05:58;3.93;;;2.10;;
17363;SDS011;8799;43.594;13.526;2023-05-19T01:08:29;5.73;;;2.07;;
17363;SDS011;8799;43.594;13.526;2023-05-19T01:10:58;4.20;;;1.80;;
17363;SDS011;8799;43.594;13.526;2023-05-19T01:13:26;2.47;;;1.60;;
17363;SDS011;8799;43.594;13.526;2023-05-19T01:16:04;2.50;;;1.73;;
17363;SDS011;8799;43.594;13.526;2023-05-19T01:18:58;3.50;;;1.77;;
17363;SDS011;8799;43.594;13.526;2023-05-19T01:21:39;2.67;;;1.80;;
17363;SDS011;8799;43.594;13.526;2023-05-19T01:24:41;4.30;;;1.63;;
17363;SDS011;8799;43.594;13.526;2023-05-19T01:30:42;3.33;;;1.63;;
17363;SDS011;8799;43.594;13.526;2023-05-19T01:33:12;3.83;;;1.70;;
17363;SDS011;8799;43.594;13.526;2023-05-19T01:35:41;5.80;;;1.80;;
17363;SDS011;8799;43.594;13.526;2023-05-19T01:38:10;2.50;;;1.33;;
17363;SDS011;8799;43.594;13.526;2023-05-19T01:40:39;7.23;;;2.00;;
17363;SDS011;8799;43.594;13.526;2023-05-19T01:43:11;3.10;;;1.90;;
17363;SDS011;8799;43.594;13.526;2023-05-19T01:45:47;6.17;;;2.03;;
17363;SDS011;8799;43.594;13.526;2023-05-19T01:48:15;5.17;;;1.80;;
17363;SDS011;8799;43.594;13.526;2023-05-19T01:50:43;2.87;;;1.60;;
17363;SDS011;8799;43.594;13.526;2023-05-19T01:53:11;3.63;;;1.83;;
17363;SDS011;8799;43.594;13.526;2023-05-19T01:55:41;4.73;;;1.73;;
17363;SDS011;8799;43.594;13.526;2023-05-19T01:58:14;3.83;;;1.77;;
17363;SDS011;8799;43.594;13.526;2023-05-19T02:00:58;2.97;;;1.70;;
17363;SDS011;8799;43.594;13.526;2023-05-19T02:03:36;4.10;;;1.53;;
17363;SDS011;8799;43.594;13.526;2023-05-19T02:06:15;5.07;;;1.77;;
17363;SDS011;8799;43.594;13.526;2023-05-19T02:08:55;2.53;;;1.60;;
17363;SDS011;8799;43.594;13.526;2023-05-19T02:11:28;3.27;;;1.90;;
17363;SDS011;8799;43.594;13.526;2023-05-19T02:14:02;3.37;;;1.57;;
17363;SDS011;8799;43.594;13.526;2023-05-19T02:16:35;5.83;;;1.90;;
17363;SDS011;8799;43.594;13.526;2023-05-19T02:19:04;2.57;;;1.77;;
17363;SDS011;8799;43.594;13.526;2023-05-19T02:21:33;3.70;;;1.37;;
17363;SDS011;8799;43.594;13.526;2023-05-19T02:24:00;3.07;;;1.63;;
17363;SDS011;8799;43.594;13.526;2023-05-19T02:26:28;2.20;;;1.57;;
17363;SDS011;8799;43.594;13.526;2023-05-19T02:28:56;3.53;;;2.03;;
17363;SDS011;8799;43.594;13.526;2023-05-19T02:31:24;2.03;;;1.50;;
17363;SDS011;8799;43.594;13.526;2023-05-19T02:33:54;3.97;;;1.40;;
17363;SDS011;8799;43.594;13.526;2023-05-19T02:36:21;3.97;;;1.63;;
17363;SDS011;8799;43.594;13.526;2023-05-19T02:38:50;6.67;;;1.87;;
17363;SDS011;8799;43.594;13.526;2023-05-19T02:41:18;2.73;;;1.77;;
17363;SDS011;8799;43.594;13.526;2023-05-19T02:43:46;2.77;;;1.70;;
17363;SDS011;8799;43.594;13.526;2023-05-19T02:46:14;3.93;;;1.90;;
17363;SDS011;8799;43.594;13.526;2023-05-19T02:48:42;3.27;;;1.67;;
17363;SDS011;8799;43.594;13.526;2023-05-19T02:51:11;3.83;;;1.53;;
17363;SDS011;8799;43.594;13.526;2023-05-19T02:53:39;2.63;;;1.40;;
17363;SDS011;8799;43.594;13.526;2023-05-19T02:56:07;3.17;;;1.60;;
17363;SDS011;8799;43.594;13.526;2023-05-19T02:58:35;1.83;;;1.60;;
17363;SDS011;8799;43.594;13.526;2023-05-19T03:01:03;3.27;;;1.60;;
17363;SDS011;8799;43.594;13.526;2023-05-19T03:03:31;3.40;;;1.57;;
17363;SDS011;8799;43.594;13.526;2023-05-19T03:05:59;3.70;;;1.80;;
17363;SDS011;8799;43.594;13.526;2023-05-19T03:08:29;4.77;;;1.90;;
17363;SDS011;8799;43.594;13.526;2023-05-19T03:10:57;3.57;;;1.83;;
17363;SDS011;8799;43.594;13.526;2023-05-19T03:13:29;2.97;;;1.60;;
17363;SDS011;8799;43.594;13.526;2023-05-19T03:15:57;2.53;;;1.37;;
17363;SDS011;8799;43.594;13.526;2023-05-19T03:18:26;3.40;;;1.50;;
17363;SDS011;8799;43.594;13.526;2023-05-19T03:20:54;2.73;;;1.57;;
17363;SDS011;8799;43.594;13.526;2023-05-19T03:23:22;3.10;;;1.63;;
17363;SDS011;8799;43.594;13.526;2023-05-19T03:25:56;2.00;;;1.43;;
17363;SDS011;8799;43.594;13.526;2023-05-19T03:28:24;3.77;;;1.43;;
17363;SDS011;8799;43.594;13.526;2023-05-19T03:30:52;2.67;;;1.90;;
17363;SDS011;8799;43.594;13.526;2023-05-19T03:33:21;1.73;;;1.50;;
17363;SDS011;8799;43.594;13.526;2023-05-19T03:35:49;2.50;;;1.40;;
17363;SDS011;8799;43.594;13.526;2023-05-19T03:38:17;4.53;;;1.53;;
17363;SDS011;8799;43.594;13.526;2023-05-19T03:40:44;2.17;;;1.60;;
17363;SDS011;8799;43.594;13.526;2023-05-19T03:43:13;3.33;;;1.70;;
17363;SDS011;8799;43.594;13.526;2023-05-19T03:45:42;2.17;;;1.37;;
17363;SDS011;8799;43.594;13.526;2023-05-19T03:48:09;2.37;;;1.60;;
17363;SDS011;8799;43.594;13.526;2023-05-19T03:50:36;1.93;;;1.57;;
17363;SDS011;8799;43.594;13.526;2023-05-19T03:53:04;5.73;;;1.70;;
17363;SDS011;8799;43.594;13.526;2023-05-19T03:55:33;4.17;;;1.50;;
17363;SDS011;8799;43.594;13.526;2023-05-19T03:58:02;2.67;;;1.60;;
17363;SDS011;8799;43.594;13.526;2023-05-19T04:00:31;4.47;;;1.47;;
17363;SDS011;8799;43.594;13.526;2023-05-19T04:02:59;2.63;;;1.53;;
17363;SDS011;8799;43.594;13.526;2023-05-19T04:05:28;2.73;;;1.50;;
17363;SDS011;8799;43.594;13.526;2023-05-19T04:07:56;3.57;;;1.70;;
17363;SDS011;8799;43.594;13.526;2023-05-19T04:10:24;2.70;;;1.37;;
17363;SDS011;8799;43.594;13.526;2023-05-19T04:12:52;1.90;;;1.30;;
17363;SDS011;8799;43.594;13.526;2023-05-19T04:15:20;2.97;;;1.80;;
17363;SDS011;8799;43.594;13.526;2023-05-19T04:17:49;3.17;;;1.90;;
17363;SDS011;8799;43.594;13.526;2023-05-19T04:20:17;2.83;;;2.00;;
17363;SDS011;8799;43.594;13.526;2023-05-19T04:22:45;4.57;;;1.57;;
17363;SDS011;8799;43.594;13.526;2023-05-19T04:25:13;2.80;;;1.50;;
17363;SDS011;8799;43.594;13.526;2023-05-19T04:27:41;2.50;;;1.40;;
17363;SDS011;8799;43.594;13.526;2023-05-19T04:30:10;2.83;;;1.40;;
17363;SDS011;8799;43.594;13.526;2023-05-19T04:32:41;5.03;;;1.93;;
17363;SDS011;8799;43.594;13.526;2023-05-19T04:35:10;3.20;;;1.70;;
17363;SDS011;8799;43.594;13.526;2023-05-19T04:37:38;2.37;;;1.70;;
17363;SDS011;8799;43.594;13.526;2023-05-19T04:40:06;2.07;;;1.50;;
17363;SDS011;8799;43.594;13.526;2023-05-19T04:42:35;2.40;;;1.70;;
17363;SDS011;8799;43.594;13.526;2023-05-19T04:45:05;3.20;;;1.60;;
17363;SDS011;8799;43.594;13.526;2023-05-19T04:47:33;2.57;;;1.77;;
17363;SDS011;8799;43.594;13.526;2023-05-19T04:50:02;3.37;;;1.70;;
17363;SDS011;8799;43.594;13.526;2023-05-19T04:52:32;5.47;;;1.87;;
17363;SDS011;8799;43.594;13.526;2023-05-19T04:55:00;3.63;;;2.20;;
17363;SDS011;8799;43.594;13.526;2023-05-19T04:57:28;6.17;;;1.80;;
17363;SDS011;8799;43.594;13.526;2023-05-19T04:59:56;3.83;;;1.83;;
17363;SDS011;8799;43.594;13.526;2023-05-19T05:02:24;2.10;;;1.60;;
17363;SDS011;8799;43.594;13.526;2023-05-19T05:04:53;3.97;;;1.70;;
17363;SDS011;8799;43.594;13.526;2023-05-19T05:07:20;2.70;;;1.83;;
17363;SDS011;8799;43.594;13.526;2023-05-19T05:09:50;4.07;;;2.00;;
17363;SDS011;8799;43.594;13.526;2023-05-19T05:12:18;5.07;;;2.13;;
17363;SDS011;8799;43.594;13.526;2023-05-19T05:14:47;3.53;;;1.87;;
17363;SDS011;8799;43.594;13.526;2023-05-19T05:17:16;3.00;;;2.10;;
17363;SDS011;8799;43.594;13.526;2023-05-19T05:19:44;3.40;;;2.00;;
17363;SDS011;8799;43.594;13.526;2023-05-19T05:22:12;7.47;;;2.83;;
17363;SDS011;8799;43.594;13.526;2023-05-19T05:24:41;7.13;;;2.47;;
17363;SDS011;8799;43.594;13.526;2023-05-19T05:27:11;6.83;;;2.40;;
17363;SDS011;8799;43.594;13.526;2023-05-19T05:29:39;8.60;;;2.10;;
17363;SDS011;8799;43.594;13.526;2023-05-19T05:32:07;7.23;;;2.30;;
17363;SDS011;8799;43.594;13.526;2023-05-19T05:34:41;2.87;;;2.07;;
17363;SDS011;8799;43.594;13.526;2023-05-19T05:37:10;6.77;;;2.20;;
17363;SDS011;8799;43.594;13.526;2023-05-19T05:39:37;9.47;;;2.17;;
17363;SDS011;8799;43.594;13.526;2023-05-19T05:42:05;2.93;;;2.10;;
17363;SDS011;8799;43.594;13.526;2023-05-19T05:44:36;10.13;;;2.80;;
17363;SDS011;8799;43.594;13.526;2023-05-19T05:47:05;6.57;;;2.90;;
17363;SDS011;8799;43.594;13.526;2023-05-19T05:49:34;6.63;;;2.40;;
17363;SDS011;8799;43.594;13.526;2023-05-19T05:52:03;10.17;;;2.60;;
17363;SDS011;8799;43.594;13.526;2023-05-19T05:54:32;5.17;;;2.27;;
17363;SDS011;8799;43.594;13.526;2023-05-19T05:57:01;24.40;;;2.90;;
17363;SDS011;8799;43.594;13.526;2023-05-19T05:59:29;3.60;;;2.30;;
17363;SDS011;8799;43.594;13.526;2023-05-19T06:01:59;8.70;;;2.40;;
17363;SDS011;8799;43.594;13.526;2023-05-19T06:04:27;6.70;;;2.17;;
17363;SDS011;8799;43.594;13.526;2023-05-19T06:06:55;8.10;;;2.83;;
17363;SDS011;8799;43.594;13.526;2023-05-19T06:09:25;7.93;;;2.40;;
17363;SDS011;8799;43.594;13.526;2023-05-19T06:11:54;3.93;;;2.07;;
17363;SDS011;8799;43.594;13.526;2023-05-19T06:14:24;4.33;;;2.27;;
17363;SDS011;8799;43.594;13.526;2023-05-19T06:16:52;7.97;;;2.30;;
17363;SDS011;8799;43.594;13.526;2023-05-19T06:19:22;8.53;;;2.77;;
17363;SDS011;8799;43.594;13.526;2023-05-19T06:21:50;6.33;;;2.40;;
17363;SDS011;8799;43.594;13.526;2023-05-19T06:24:19;7.90;;;1.90;;
17363;SDS011;8799;43.594;13.526;2023-05-19T06:26:46;4.53;;;2.03;;
17363;SDS011;8799;43.594;13.526;2023-05-19T06:29:14;4.37;;;2.13;;
17363;SDS011;8799;43.594;13.526;2023-05-19T06:31:43;5.17;;;2.27;;
17363;SDS011;8799;43.594;13.526;2023-05-19T06:34:10;6.57;;;2.70;;
17363;SDS011;8799;43.594;13.526;2023-05-19T06:36:43;3.60;;;2.30;;
17363;SDS011;8799;43.594;13.526;2023-05-19T06:39:10;4.83;;;2.33;;
17363;SDS011;8799;43.594;13.526;2023-05-19T06:41:38;4.30;;;2.40;;
17363;SDS011;8799;43.594;13.526;2023-05-19T06:44:06;6.53;;;2.20;;
17363;SDS011;8799;43.594;13.526;2023-05-19T06:46:34;4.90;;;2.10;;
17363;SDS011;8799;43.594;13.526;2023-05-19T06:49:03;4.70;;;1.90;;
17363;SDS011;8799;43.594;13.526;2023-05-19T06:51:31;4.40;;;1.93;;
17363;SDS011;8799;43.594;13.526;2023-05-19T06:54:01;4.63;;;2.17;;
17363;SDS011;8799;43.594;13.526;2023-05-19T06:56:28;4.20;;;2.03;;
17363;SDS011;8799;43.594;13.526;2023-05-19T06:58:56;2.93;;;2.10;;
17363;SDS011;8799;43.594;13.526;2023-05-19T07:01:24;7.47;;;2.10;;
17363;SDS011;8799;43.594;13.526;2023-05-19T07:03:52;6.50;;;2.40;;
17363;SDS011;8799;43.594;13.526;2023-05-19T07:06:20;5.23;;;2.30;;
17363;SDS011;8799;43.594;13.526;2023-05-19T07:08:48;6.17;;;2.23;;
17363;SDS011;8799;43.594;13.526;2023-05-19T07:11:17;2.97;;;1.97;;
17363;SDS011;8799;43.594;13.526;2023-05-19T07:13:45;4.30;;;1.87;;
17363;SDS011;8799;43.594;13.526;2023-05-19T07:16:12;3.80;;;2.20;;
17363;SDS011;8799;43.594;13.526;2023-05-19T07:18:40;4.50;;;2.20;;
17363;SDS011;8799;43.594;13.526;2023-05-19T07:21:08;6.97;;;2.13;;
17363;SDS011;8799;43.594;13.526;2023-05-19T07:23:36;4.03;;;2.10;;
17363;SDS011;8799;43.594;13.526;2023-05-19T07:26:04;9.50;;;2.20;;
17363;SDS011;8799;43.594;13.526;2023-05-19T07:28:33;4.13;;;2.17;;
17363;SDS011;8799;43.594;13.526;2023-05-19T07:31:02;4.33;;;2.10;;
17363;SDS011;8799;43.594;13.526;2023-05-19T07:33:29;5.17;;;2.00;;
17363;SDS011;8799;43.594;13.526;2023-05-19T07:35:57;6.70;;;2.27;;
17363;SDS011;8799;43.594;13.526;2023-05-19T07:38:25;4.30;;;2.10;;
17363;SDS011;8799;43.594;13.526;2023-05-19T07:40:52;4.27;;;2.17;;
17363;SDS011;8799;43.594;13.526;2023-05-19T07:43:20;3.23;;;2.07;;
17363;SDS011;8799;43.594;13.526;2023-05-19T07:45:51;3.27;;;1.80;;
17363;SDS011;8799;43.594;13.526;2023-05-19T07:48:40;6.03;;;2.33;;
17363;SDS011;8799;43.594;13.526;2023-05-19T07:51:09;3.67;;;2.10;;
17363;SDS011;8799;43.594;13.526;2023-05-19T07:53:38;2.90;;;1.83;;
17363;SDS011;8799;43.594;13.526;2023-05-19T07:56:06;4.97;;;1.93;;
17363;SDS011;8799;43.594;13.526;2023-05-19T07:58:38;2.73;;;1.67;;
17363;SDS011;8799;43.594;13.526;2023-05-19T08:01:07;3.90;;;1.93;;
17363;SDS011;8799;43.594;13.526;2023-05-19T08:03:36;4.37;;;2.00;;
17363;SDS011;8799;43.594;13.526;2023-05-19T08:06:05;6.63;;;2.57;;
17363;SDS011;8799;43.594;13.526;2023-05-19T08:08:32;3.07;;;1.63;;
17363;SDS011;8799;43.594;13.526;2023-05-19T08:11:01;3.43;;;1.80;;
17363;SDS011;8799;43.594;13.526;2023-05-19T08:13:29;3.07;;;1.97;;
17363;SDS011;8799;43.594;13.526;2023-05-19T08:15:58;2.10;;;1.70;;
17363;SDS011;8799;43.594;13.526;2023-05-19T08:18:28;4.13;;;2.30;;
17363;SDS011;8799;43.594;13.526;2023-05-19T08:20:55;7.03;;;2.30;;
17363;SDS011;8799;43.594;13.526;2023-05-19T08:23:23;3.83;;;1.87;;
17363;SDS011;8799;43.594;13.526;2023-05-19T08:25:51;2.47;;;1.60;;
17363;SDS011;8799;43.594;13.526;2023-05-19T08:28:19;4.67;;;2.03;;
17363;SDS011;8799;43.594;13.526;2023-05-19T08:30:48;5.13;;;2.43;;
17363;SDS011;8799;43.594;13.526;2023-05-19T08:33:17;3.37;;;2.10;;
17363;SDS011;8799;43.594;13.526;2023-05-19T08:35:47;4.20;;;2.33;;
17363;SDS011;8799;43.594;13.526;2023-05-19T08:38:15;3.57;;;1.70;;
17363;SDS011;8799;43.594;13.526;2023-05-19T08:40:44;2.30;;;1.60;;
17363;SDS011;8799;43.594;13.526;2023-05-19T08:43:13;3.57;;;1.80;;
17363;SDS011;8799;43.594;13.526;2023-05-19T08:45:42;4.27;;;2.07;;
17363;SDS011;8799;43.594;13.526;2023-05-19T08:48:12;6.73;;;2.10;;
17363;SDS011;8799;43.594;13.526;2023-05-19T08:50:40;3.53;;;1.63;;
17363;SDS011;8799;43.594;13.526;2023-05-19T08:53:18;5.10;;;1.70;;
17363;SDS011;8799;43.594;13.526;2023-05-19T08:55:50;4.93;;;2.10;;
17363;SDS011;8799;43.594;13.526;2023-05-19T08:58:26;6.97;;;1.93;;
17363;SDS011;8799;43.594;13.526;2023-05-19T09:00:54;4.63;;;2.10;;
17363;SDS011;8799;43.594;13.526;2023-05-19T09:03:23;3.53;;;1.80;;
17363;SDS011;8799;43.594;13.526;2023-05-19T09:05:52;4.67;;;2.00;;
17363;SDS011;8799;43.594;13.526;2023-05-19T09:08:20;3.40;;;2.00;;
17363;SDS011;8799;43.594;13.526;2023-05-19T09:10:48;4.70;;;1.97;;
17363;SDS011;8799;43.594;13.526;2023-05-19T09:13:17;2.70;;;1.80;;
17363;SDS011;8799;43.594;13.526;2023-05-19T09:15:45;2.57;;;1.87;;
17363;SDS011;8799;43.594;13.526;2023-05-19T09:18:14;6.33;;;1.97;;
17363;SDS011;8799;43.594;13.526;2023-05-19T09:20:42;3.10;;;1.93;;
17363;SDS011;8799;43.594;13.526;2023-05-19T09:23:13;4.37;;;2.00;;
17363;SDS011;8799;43.594;13.526;2023-05-19T09:25:47;2.33;;;1.87;;
17363;SDS011;8799;43.594;13.526;2023-05-19T09:28:21;4.23;;;1.90;;
17363;SDS011;8799;43.594;13.526;2023-05-19T09:30:57;3.87;;;2.03;;
17363;SDS011;8799;43.594;13.526;2023-05-19T09:33:28;3.53;;;2.10;;
17363;SDS011;8799;43.594;13.526;2023-05-19T09:35:58;3.40;;;1.60;;
17363;SDS011;8799;43.594;13.526;2023-05-19T09:38:28;4.57;;;2.03;;
17363;SDS011;8799;43.594;13.526;2023-05-19T09:40:56;3.13;;;1.90;;
17363;SDS011;8799;43.594;13.526;2023-05-19T09:43:25;4.57;;;2.10;;
17363;SDS011;8799;43.594;13.526;2023-05-19T09:45:58;2.40;;;1.60;;
17363;SDS011;8799;43.594;13.526;2023-05-19T09:48:30;2.53;;;1.80;;
17363;SDS011;8799;43.594;13.526;2023-05-19T09:50:58;3.60;;;2.00;;
17363;SDS011;8799;43.594;13.526;2023-05-19T09:53:28;3.60;;;1.73;;
17363;SDS011;8799;43.594;13.526;2023-05-19T09:55:57;2.37;;;1.47;;
17363;SDS011;8799;43.594;13.526;2023-05-19T09:58:25;2.33;;;1.43;;
17363;SDS011;8799;43.594;13.526;2023-05-19T10:00:58;2.27;;;1.57;;
17363;SDS011;8799;43.594;13.526;2023-05-19T10:03:27;4.90;;;1.83;;
17363;SDS011;8799;43.594;13.526;2023-05-19T10:05:55;2.57;;;1.70;;
17363;SDS011;8799;43.594;13.526;2023-05-19T10:08:23;3.53;;;1.67;;
17363;SDS011;8799;43.594;13.526;2023-05-19T10:10:56;1.77;;;1.33;;
17363;SDS011;8799;43.594;13.526;2023-05-19T10:13:24;2.07;;;1.50;;
17363;SDS011;8799;43.594;13.526;2023-05-19T10:15:53;1.87;;;1.60;;
17363;SDS011;8799;43.594;13.526;2023-05-19T10:18:21;3.07;;;1.90;;
17363;SDS011;8799;43.594;13.526;2023-05-19T10:20:51;4.90;;;1.70;;
17363;SDS011;8799;43.594;13.526;2023-05-19T10:23:19;1.83;;;1.70;;
17363;SDS011;8799;43.594;13.526;2023-05-19T10:25:53;2.93;;;1.57;;
17363;SDS011;8799;43.594;13.526;2023-05-19T10:28:25;2.90;;;1.70;;
17363;SDS011;8799;43.594;13.526;2023-05-19T10:30:57;3.57;;;2.10;;
17363;SDS011;8799;43.594;13.526;2023-05-19T10:33:30;2.07;;;1.60;;
17363;SDS011;8799;43.594;13.526;2023-05-19T10:36:07;2.13;;;1.63;;
17363;SDS011;8799;43.594;13.526;2023-05-19T10:38:44;2.60;;;1.70;;
17363;SDS011;8799;43.594;13.526;2023-05-19T10:41:21;3.27;;;1.80;;
17363;SDS011;8799;43.594;13.526;2023-05-19T10:43:55;4.60;;;1.90;;
17363;SDS011;8799;43.594;13.526;2023-05-19T10:46:33;2.30;;;1.40;;
17363;SDS011;8799;43.594;13.526;2023-05-19T10:49:01;1.90;;;1.33;;
17363;SDS011;8799;43.594;13.526;2023-05-19T10:51:29;2.77;;;1.60;;
17363;SDS011;8799;43.594;13.526;2023-05-19T10:54:00;2.40;;;1.50;;
17363;SDS011;8799;43.594;13.526;2023-05-19T10:56:30;5.17;;;2.10;;
17363;SDS011;8799;43.594;13.526;2023-05-19T10:59:00;3.60;;;1.70;;
17363;SDS011;8799;43.594;13.526;2023-05-19T11:01:29;3.17;;;1.70;;
17363;SDS011;8799;43.594;13.526;2023-05-19T11:04:03;4.80;;;1.60;;
17363;SDS011;8799;43.594;13.526;2023-05-19T11:06:32;3.70;;;2.13;;
17363;SDS011;8799;43.594;13.526;2023-05-19T11:09:10;2.73;;;1.83;;
17363;SDS011;8799;43.594;13.526;2023-05-19T11:11:45;3.67;;;1.87;;
17363;SDS011;8799;43.594;13.526;2023-05-19T11:14:14;2.30;;;1.50;;
17363;SDS011;8799;43.594;13.526;2023-05-19T11:16:45;1.90;;;1.37;;
17363;SDS011;8799;43.594;13.526;2023-05-19T11:19:18;3.50;;;1.73;;
17363;SDS011;8799;43.594;13.526;2023-05-19T11:21:46;2.33;;;1.40;;
17363;SDS011;8799;43.594;13.526;2023-05-19T11:24:33;2.83;;;1.50;;
17363;SDS011;8799;43.594;13.526;2023-05-19T11:27:24;3.73;;;1.77;;
17363;SDS011;8799;43.594;13.526;2023-05-19T11:29:53;3.10;;;1.40;;
17363;SDS011;8799;43.594;13.526;2023-05-19T11:32:24;2.30;;;1.50;;
17363;SDS011;8799;43.594;13.526;2023-05-19T11:34:54;2.27;;;1.53;;
17363;SDS011;8799;43.594;13.526;2023-05-19T11:37:22;2.07;;;1.37;;
17363;SDS011;8799;43.594;13.526;2023-05-19T11:39:50;2.20;;;1.40;;
17363;SDS011;8799;43.594;13.526;2023-05-19T11:42:18;1.67;;;1.20;;
17363;SDS011;8799;43.594;13.526;2023-05-19T11:44:47;2.67;;;1.43;;
17363;SDS011;8799;43.594;13.526;2023-05-19T11:47:15;3.63;;;1.80;;
17363;SDS011;8799;43.594;13.526;2023-05-19T11:49:43;2.60;;;1.50;;
17363;SDS011;8799;43.594;13.526;2023-05-19T11:52:14;2.77;;;1.73;;
17363;SDS011;8799;43.594;13.526;2023-05-19T11:54:42;3.63;;;1.67;;
17363;SDS011;8799;43.594;13.526;2023-05-19T11:57:14;4.07;;;1.90;;
17363;SDS011;8799;43.594;13.526;2023-05-19T11:59:42;2.50;;;1.40;;
17363;SDS011;8799;43.594;13.526;2023-05-19T12:02:16;2.77;;;1.67;;
17363;SDS011;8799;43.594;13.526;2023-05-19T12:04:45;4.80;;;1.60;;
17363;SDS011;8799;43.594;13.526;2023-05-19T12:07:14;4.60;;;1.70;;
17363;SDS011;8799;43.594;13.526;2023-05-19T12:09:43;3.80;;;1.60;;
17363;SDS011;8799;43.594;13.526;2023-05-19T12:12:12;3.77;;;1.90;;
17363;SDS011;8799;43.594;13.526;2023-05-19T12:14:42;3.73;;;1.93;;
17363;SDS011;8799;43.594;13.526;2023-05-19T12:17:10;3.10;;;2.00;;
17363;SDS011;8799;43.594;13.526;2023-05-19T12:19:40;4.17;;;1.90;;
17363;SDS011;8799;43.594;13.526;2023-05-19T12:22:10;4.13;;;2.27;;
17363;SDS011;8799;43.594;13.526;2023-05-19T12:24:39;4.10;;;2.27;;
17363;SDS011;8799;43.594;13.526;2023-05-19T12:27:11;3.13;;;2.27;;
17363;SDS011;8799;43.594;13.526;2023-05-19T12:29:48;8.17;;;2.30;;
17363;SDS011;8799;43.594;13.526;2023-05-19T12:32:17;7.23;;;2.30;;
17363;SDS011;8799;43.594;13.526;2023-05-19T12:34:46;3.67;;;2.23;;
17363;SDS011;8799;43.594;13.526;2023-05-19T12:37:15;5.70;;;2.27;;
17363;SDS011;8799;43.594;13.526;2023-05-19T12:39:43;5.17;;;1.87;;
17363;SDS011;8799;43.594;13.526;2023-05-19T12:42:12;4.03;;;1.80;;
17363;SDS011;8799;43.594;13.526;2023-05-19T12:44:41;3.90;;;1.93;;
17363;SDS011;8799;43.594;13.526;2023-05-19T12:47:11;4.27;;;1.70;;
17363;SDS011;8799;43.594;13.526;2023-05-19T12:49:53;3.57;;;1.60;;
17363;SDS011;8799;43.594;13.526;2023-05-19T12:52:22;5.83;;;1.80;;
17363;SDS011;8799;43.594;13.526;2023-05-19T12:54:56;5.43;;;1.70;;
17363;SDS011;8799;43.594;13.526;2023-05-19T12:57:25;3.03;;;1.60;;
17363;SDS011;8799;43.594;13.526;2023-05-19T12:59:58;2.83;;;1.33;;
17363;SDS011;8799;43.594;13.526;2023-05-19T13:02:26;3.50;;;1.70;;
17363;SDS011;8799;43.594;13.526;2023-05-19T13:04:56;1.87;;;1.50;;
17363;SDS011;8799;43.594;13.526;2023-05-19T13:07:23;1.13;;;1.10;;
17363;SDS011;8799;43.594;13.526;2023-05-19T13:09:51;3.27;;;1.43;;
17363;SDS011;8799;43.594;13.526;2023-05-19T13:12:19;3.03;;;1.50;;
17363;SDS011;8799;43.594;13.526;2023-05-19T13:14:47;3.97;;;1.23;;
17363;SDS011;8799;43.594;13.526;2023-05-19T13:17:15;2.73;;;1.43;;
17363;SDS011;8799;43.594;13.526;2023-05-19T13:19:50;2.30;;;1.67;;
17363;SDS011;8799;43.594;13.526;2023-05-19T13:22:20;3.53;;;1.50;;
17363;SDS011;8799;43.594;13.526;2023-05-19T13:24:48;1.60;;;1.40;;
17363;SDS011;8799;43.594;13.526;2023-05-19T13:27:17;3.90;;;1.60;;
17363;SDS011;8799;43.594;13.526;2023-05-19T13:29:45;1.83;;;1.40;;
17363;SDS011;8799;43.594;13.526;2023-05-19T13:32:14;2.20;;;1.43;;
17363;SDS011;8799;43.594;13.526;2023-05-19T13:34:41;4.60;;;1.50;;
17363;SDS011;8799;43.594;13.526;2023-05-19T13:37:09;3.63;;;1.43;;
17363;SDS011;8799;43.594;13.526;2023-05-19T13:39:39;4.30;;;1.60;;
17363;SDS011;8799;43.594;13.526;2023-05-19T13:42:08;2.53;;;1.47;;
17363;SDS011;8799;43.594;13.526;2023-05-19T13:44:35;2.83;;;1.33;;
17363;SDS011;8799;43.594;13.526;2023-05-19T13:47:04;7.13;;;1.27;;
17363;SDS011;8799;43.594;13.526;2023-05-19T13:49:31;2.47;;;1.20;;
17363;SDS011;8799;43.594;13.526;2023-05-19T13:51:59;2.07;;;1.20;;
17363;SDS011;8799;43.594;13.526;2023-05-19T13:54:27;1.53;;;1.20;;
17363;SDS011;8799;43.594;13.526;2023-05-19T13:56:57;1.83;;;1.27;;
17363;SDS011;8799;43.594;13.526;2023-05-19T13:59:24;2.10;;;1.10;;
17363;SDS011;8799;43.594;13.526;2023-05-19T14:01:52;1.83;;;1.20;;
17363;SDS011;8799;43.594;13.526;2023-05-19T14:04:20;1.93;;;1.37;;
17363;SDS011;8799;43.594;13.526;2023-05-19T14:06:47;1.90;;;1.47;;
17363;SDS011;8799;43.594;13.526;2023-05-19T14:09:15;2.73;;;1.40;;
17363;SDS011;8799;43.594;13.526;2023-05-19T14:11:43;1.10;;;1.00;;
17363;SDS011;8799;43.594;13.526;2023-05-19T14:14:12;1.60;;;1.30;;
17363;SDS011;8799;43.594;13.526;2023-05-19T14:16:40;3.03;;;1.33;;
17363;SDS011;8799;43.594;13.526;2023-05-19T14:19:08;3.67;;;1.40;;
17363;SDS011;8799;43.594;13.526;2023-05-19T14:21:36;1.53;;;1.40;;
17363;SDS011;8799;43.594;13.526;2023-05-19T14:24:04;1.20;;;1.10;;
17363;SDS011;8799;43.594;13.526;2023-05-19T14:26:33;2.37;;;1.13;;
17363;SDS011;8799;43.594;13.526;2023-05-19T14:29:01;1.37;;;1.20;;
17363;SDS011;8799;43.594;13.526;2023-05-19T14:31:31;2.23;;;1.40;;
17363;SDS011;8799;43.594;13.526;2023-05-19T14:33:59;1.73;;;1.13;;
17363;SDS011;8799;43.594;13.526;2023-05-19T14:36:28;1.70;;;1.10;;
17363;SDS011;8799;43.594;13.526;2023-05-19T14:38:57;3.23;;;1.37;;
17363;SDS011;8799;43.594;13.526;2023-05-19T14:41:25;2.30;;;1.00;;
17363;SDS011;8799;43.594;13.526;2023-05-19T14:43:53;2.60;;;1.13;;
17363;SDS011;8799;43.594;13.526;2023-05-19T14:46:21;1.30;;;1.10;;
17363;SDS011;8799;43.594;13.526;2023-05-19T14:48:50;1.43;;;1.20;;
17363;SDS011;8799;43.594;13.526;2023-05-19T14:51:18;1.53;;;1.10;;
17363;SDS011;8799;43.594;13.526;2023-05-19T14:53:47;0.90;;;0.90;;
17363;SDS011;8799;43.594;13.526;2023-05-19T14:56:14;2.73;;;1.40;;
17363;SDS011;8799;43.594;13.526;2023-05-19T14:58:43;1.47;;;1.10;;
17363;SDS011;8799;43.594;13.526;2023-05-19T15:01:11;1.97;;;1.30;;
17363;SDS011;8799;43.594;13.526;2023-05-19T15:03:39;2.30;;;1.37;;
17363;SDS011;8799;43.594;13.526;2023-05-19T15:06:10;3.10;;;1.67;;